Seaspan Raven — CFN6643 — position and weather

sailwx.info

Track history (hours):
 
Tides and Currents Weather Stations Pressure Air Temp Water Temp Dewpoint Dewpoint Depression Visibility Wind Speed Wind Dir Waves Ship Positions

Seaspan Raven

Last reported at 2017-Dec-11 17:00 UTC. Time now 2017-Dec-13 09:03 UTC.
Position N 49°18' W 123°07'.

Length 26 m; draft 4.5 m.

Type: Tug. MMSI: 316018851.

Date/timePositionNaut miles runAvg speedWind from/ knotsBaromVisibWave heightAir tempDewpointWater temp
2017-Dec-11 17:00N 49°18' W 123°07'1 2.2
2017-Dec-11 16:30N 49°19' W 123°06'0 0.0
2017-Dec-11 16:00N 49°19' W 123°06'0 0.0
2017-Dec-11 15:30N 49°19' W 123°06'0 0.0
2017-Dec-11 15:00N 49°19' W 123°06'0 0.0
2017-Dec-11 14:30N 49°19' W 123°06'0 0.0
2017-Dec-11 14:00N 49°19' W 123°06'0 0.0
2017-Dec-11 13:30N 49°19' W 123°06'0 0.0
2017-Dec-11 13:00N 49°19' W 123°06'0 0.0
2017-Dec-11 12:30N 49°19' W 123°06'0 0.0
2017-Dec-11 12:00N 49°19' W 123°06'0 0.0
2017-Dec-11 11:30N 49°19' W 123°06'0 0.0
2017-Dec-11 11:00N 49°19' W 123°06'0 0.0
2017-Dec-11 10:30N 49°19' W 123°06'0 0.0
2017-Dec-11 10:00N 49°19' W 123°06'0 0.0
2017-Dec-11 09:30N 49°19' W 123°06'0 0.0
2017-Dec-11 09:00N 49°19' W 123°06'0 0.0
2017-Dec-11 08:30N 49°19' W 123°06'0 0.0
2017-Dec-11 08:00N 49°19' W 123°06'0 0.0
2017-Dec-11 07:30N 49°19' W 123°06'0 0.0
2017-Dec-11 07:00N 49°19' W 123°06'0 0.0
2017-Dec-11 06:30N 49°19' W 123°06'0 0.0
2017-Dec-11 06:00N 49°19' W 123°06'0 0.0
2017-Dec-11 05:30N 49°19' W 123°06'0 0.0
2017-Dec-11 05:00N 49°19' W 123°06'0 0.0
2017-Dec-11 04:30N 49°19' W 123°06'0 0.0
2017-Dec-11 04:00N 49°19' W 123°06'0 0.0
2017-Dec-11 03:30N 49°19' W 123°06'2 4.1
2017-Dec-11 03:00N 49°18' W 123°04'3 5.4
2017-Dec-11 02:30N 49°18' W 122°59'3 6.1
2017-Dec-11 02:00N 49°18' W 122°55'2 3.5
2017-Dec-11 01:30N 49°17' W 122°52'0 0.6
2017-Dec-11 00:59N 49°18' W 122°53'4 8.5
2017-Dec-11 00:30N 49°18' W 122°59'3 7.0
2017-Dec-11 00:00N 49°17' W 123°04'1 2.4
2017-Dec-10 23:30N 49°18' W 123°03'0 0.0
2017-Dec-10 23:00N 49°18' W 123°03'0 0.0
2017-Dec-10 22:30N 49°18' W 123°03'0 0.0
2017-Dec-10 22:00N 49°18' W 123°03'0 0.0
2017-Dec-10 21:30N 49°18' W 123°03'0 0.0
2017-Dec-10 21:00N 49°18' W 123°03'0 0.0
2017-Dec-10 20:30N 49°18' W 123°03'0 0.0
2017-Dec-10 20:00N 49°18' W 123°03'2 4.8
2017-Dec-10 19:30N 49°18' W 122°59'0 0.9
2017-Dec-10 19:00N 49°18' W 122°58'0 0.1
2017-Dec-10 18:30N 49°18' W 122°58'0 0.1
2017-Dec-10 18:00N 49°18' W 122°58'0 0.0
2017-Dec-10 17:30N 49°18' W 122°58'0 0.0
2017-Dec-10 17:00N 49°18' W 122°58'0 0.1
2017-Dec-10 16:30N 49°18' W 122°58'0 0.1
2017-Dec-10 16:00N 49°18' W 122°58'3 5.6
2017-Dec-10 15:30N 49°18' W 123°02'510.1
2017-Dec-10 15:00N 49°19' W 123°10'510.6
2017-Dec-10 14:30N 49°17' W 123°17'611.0
2017-Dec-10 14:00N 49°11' W 123°19'510.7
2017-Dec-10 13:30N 49°06' W 123°20'510.6
2017-Dec-10 13:00N 49°02' W 123°15'4 7.2
2017-Dec-10 12:29N 49°01' W 123°09'0 0.3
2017-Dec-10 11:53N 49°01' W 123°09'1 3.6
2017-Dec-10 11:30N 48°60' W 123°09'2 3.8
2017-Dec-10 11:00N 49°02' W 123°09'0 0.0
2017-Dec-10 10:29N 49°02' W 123°09'0 0.0
2017-Dec-10 09:52N 49°02' W 123°09'0 0.0
2017-Dec-10 09:13N 49°02' W 123°09'0 0.0
2017-Dec-10 09:00N 49°02' W 123°09'0 0.0
2017-Dec-10 08:27N 49°02' W 123°09'0 0.0
2017-Dec-10 07:59N 49°02' W 123°09'0 0.0
2017-Dec-10 07:30N 49°02' W 123°09'1 1.3
2017-Dec-10 07:00N 49°01' W 123°09'0 0.0
2017-Dec-10 06:30N 49°01' W 123°09'0 0.1
2017-Dec-10 06:00N 49°01' W 123°09'0 1.0
2017-Dec-10 05:30N 49°00' W 123°10'0 0.5
2017-Dec-10 05:00N 49°00' W 123°09'0 0.8
2017-Dec-10 04:28N 49°01' W 123°09'0 0.1
2017-Dec-10 04:00N 49°01' W 123°09'1 1.5
2017-Dec-10 03:29N 49°02' W 123°09'0 0.0
2017-Dec-10 02:54N 49°02' W 123°09'0 0.0
2017-Dec-10 02:28N 49°02' W 123°09'0 0.0
2017-Dec-10 01:53N 49°02' W 123°09'0 0.2
2017-Dec-10 01:30N 49°01' W 123°09'1 2.4
2017-Dec-10 01:00N 49°01' W 123°10'0 0.2
2017-Dec-10 00:30N 49°01' W 123°10'0 0.1
2017-Dec-10 00:00N 49°01' W 123°10'2 3.7
2017-Dec-09 23:30N 49°01' W 123°13'510.9
2017-Dec-09 23:00N 49°05' W 123°19'611.2
2017-Dec-09 22:30N 49°10' W 123°19'611.1
2017-Dec-09 22:00N 49°16' W 123°18'5 9.7
2017-Dec-09 21:30N 49°19' W 123°12'4 7.2
2017-Dec-09 21:00N 49°19' W 123°06'0 0.0
2017-Dec-09 20:30N 49°19' W 123°06'0 0.0
2017-Dec-09 20:00N 49°19' W 123°06'1 2.6
2017-Dec-09 19:30N 49°19' W 123°08'2 4.2
2017-Dec-09 19:00N 49°18' W 123°05'0 0.7
2017-Dec-09 18:30N 49°18' W 123°05'1 2.8
2017-Dec-09 18:00N 49°19' W 123°06'0 0.0
2017-Dec-09 17:30N 49°19' W 123°06'2 3.5
2017-Dec-09 17:00N 49°19' W 123°09'3 5.2
2017-Dec-09 16:30N 49°18' W 123°05'0 0.8
2017-Dec-09 16:00N 49°18' W 123°05'1 2.3
2017-Dec-09 15:30N 49°19' W 123°06'0 0.0
2017-Dec-09 15:00N 49°19' W 123°06'0 0.0
2017-Dec-09 14:30N 49°19' W 123°06'0 0.0
2017-Dec-09 14:00N 49°19' W 123°06'0 0.0
2017-Dec-09 13:30N 49°19' W 123°06'0 0.0
2017-Dec-09 13:00N 49°19' W 123°06'0 0.0
2017-Dec-09 12:30N 49°19' W 123°06'0 0.0
2017-Dec-09 12:00N 49°19' W 123°06'0 0.0
2017-Dec-09 11:30N 49°19' W 123°06'0 0.7
2017-Dec-09 11:00N 49°18' W 123°07'4 7.1
2017-Dec-09 10:30N 49°19' W 123°12'4 8.7
2017-Dec-09 10:00N 49°16' W 123°18'510.0
2017-Dec-09 09:30N 49°11' W 123°19'510.2
2017-Dec-09 09:00N 49°06' W 123°20'5 9.5
2017-Dec-09 08:30N 49°02' W 123°16'5 9.4
2017-Dec-09 07:58N 49°00' W 123°09'0 0.7
2017-Dec-09 07:30N 49°00' W 123°10'1 0.6
2017-Dec-09 06:29N 49°01' W 123°09'2 3.7
2017-Dec-09 06:00N 48°59' W 123°09'1 2.2
2017-Dec-09 05:29N 49°00' W 123°10'2 3.6
2017-Dec-09 05:00N 49°01' W 123°12'4 9.0
2017-Dec-09 04:30N 49°04' W 123°18'4 8.7
2017-Dec-09 04:00N 49°08' W 123°19'5 9.3
2017-Dec-09 03:30N 49°12' W 123°18'5 9.2
2017-Dec-09 03:00N 49°17' W 123°17'5 9.1
2017-Dec-09 02:30N 49°19' W 123°11'4 8.2
2017-Dec-09 02:00N 49°18' W 123°05'2 3.5
2017-Dec-09 01:30N 49°18' W 123°02'0 0.0
2017-Dec-09 01:00N 49°18' W 123°02'1 2.7
2017-Dec-09 00:30N 49°18' W 122°60'1 2.7
2017-Dec-09 00:00N 49°18' W 122°58'2 4.8
2017-Dec-08 23:30N 49°18' W 122°54'1 2.4
2017-Dec-08 22:57N 49°17' W 122°52'2 5.1
2017-Dec-08 22:30N 49°18' W 122°56'5 9.2
2017-Dec-08 22:00N 49°18' W 123°03'1 1.0
2017-Dec-08 21:30N 49°18' W 123°03'0 0.0
2017-Dec-08 21:00N 49°18' W 123°03'1 2.1
2017-Dec-08 20:30N 49°18' W 123°05'1 1.6
2017-Dec-08 20:00N 49°18' W 123°03'1 1.8
2017-Dec-08 19:30N 49°18' W 123°02'0 0.3
2017-Dec-08 19:01N 49°18' W 123°02'2 3.2
2017-Dec-08 18:30N 49°18' W 123°05'0 0.6
2017-Dec-08 18:01N 49°18' W 123°04'1 2.6
2017-Dec-08 17:30N 49°18' W 123°02'0 0.3
2017-Dec-08 17:00N 49°18' W 123°02'1 3.0
2017-Dec-08 16:30N 49°18' W 123°04'2 3.2
2017-Dec-08 16:00N 49°19' W 123°06'0 0.0
2017-Dec-08 15:30N 49°19' W 123°06'0 0.0
2017-Dec-08 15:00N 49°19' W 123°06'0 0.0
2017-Dec-08 14:30N 49°19' W 123°06'0 0.0
2017-Dec-08 14:00N 49°19' W 123°06'0 0.0
2017-Dec-08 13:30N 49°19' W 123°06'0 0.0
2017-Dec-08 13:00N 49°19' W 123°06'0 0.0
2017-Dec-08 12:30N 49°19' W 123°06'0 0.0
2017-Dec-08 12:00N 49°19' W 123°06'0 0.0
2017-Dec-08 11:30N 49°19' W 123°06'0 0.0
2017-Dec-08 11:00N 49°19' W 123°06'0 0.0
2017-Dec-08 10:30N 49°19' W 123°06'0 0.0
2017-Dec-08 10:00N 49°19' W 123°06'0 0.0
2017-Dec-08 09:30N 49°19' W 123°06'0 0.0
2017-Dec-08 09:00N 49°19' W 123°06'0 0.0
2017-Dec-08 08:30N 49°19' W 123°06'0 0.0
2017-Dec-08 08:00N 49°19' W 123°06'0 0.0
2017-Dec-08 07:30N 49°19' W 123°06'0 0.0
2017-Dec-08 07:00N 49°19' W 123°06'0 0.0
2017-Dec-08 06:30N 49°19' W 123°06'0 0.0
2017-Dec-08 06:00N 49°19' W 123°06'0 0.0
2017-Dec-08 05:30N 49°19' W 123°06'0 0.0
2017-Dec-08 05:00N 49°19' W 123°06'0 0.0
2017-Dec-08 04:30N 49°19' W 123°06'0 0.0
2017-Dec-08 04:00N 49°19' W 123°06'0 0.0
2017-Dec-08 03:30N 49°19' W 123°06'0 0.0
2017-Dec-08 03:00N 49°19' W 123°06'0 0.0
2017-Dec-08 02:30N 49°19' W 123°06'0 0.0
2017-Dec-08 02:00N 49°19' W 123°06'0 0.0
2017-Dec-08 01:30N 49°19' W 123°06'0 0.0
2017-Dec-08 01:00N 49°19' W 123°06'0 0.0
2017-Dec-08 00:30N 49°19' W 123°06'0 0.2
2017-Dec-08 00:00N 49°19' W 123°06'0 0.0
2017-Dec-07 23:30N 49°19' W 123°06'0 0.0
2017-Dec-07 23:00N 49°19' W 123°06'0 0.5
2017-Dec-07 22:30N 49°18' W 123°06'1 1.6
2017-Dec-07 22:00N 49°18' W 123°05'0 0.5
2017-Dec-07 21:30N 49°18' W 123°05'0 0.0
2017-Dec-07 21:00N 49°18' W 123°05'0 0.0
2017-Dec-07 20:30N 49°18' W 123°05'0 0.0
2017-Dec-07 20:00N 49°18' W 123°05'0 0.0
2017-Dec-07 19:30N 49°18' W 123°05'0 0.0
2017-Dec-07 19:00N 49°18' W 123°05'0 0.0
2017-Dec-07 18:30N 49°18' W 123°05'0 0.0
2017-Dec-07 18:00N 49°18' W 123°05'0 0.0
2017-Dec-07 17:30N 49°18' W 123°05'0 0.2
2017-Dec-07 17:00N 49°18' W 123°05'0 0.0
2017-Dec-07 16:30N 49°18' W 123°05'0 0.0
2017-Dec-07 16:00N 49°18' W 123°05'0 0.0
2017-Dec-07 15:30N 49°18' W 123°05'0 0.0
2017-Dec-07 15:00N 49°18' W 123°05'0 0.1
2017-Dec-07 14:30N 49°18' W 123°05'1 1.5
2017-Dec-07 14:00N 49°18' W 123°04'0 0.1
2017-Dec-07 13:30N 49°18' W 123°04'2 3.4
2017-Dec-07 13:00N 49°19' W 123°06'0 0.0
2017-Dec-07 12:30N 49°19' W 123°06'0 0.0
2017-Dec-07 12:00N 49°19' W 123°06'0 0.0
2017-Dec-07 11:30N 49°19' W 123°06'0 0.0
2017-Dec-07 11:00N 49°19' W 123°06'0 0.0
2017-Dec-07 10:30N 49°19' W 123°06'0 0.0
2017-Dec-07 10:00N 49°19' W 123°06'0 0.0
2017-Dec-07 09:30N 49°19' W 123°06'2 3.1
2017-Dec-07 09:00N 49°17' W 123°05'0 0.0
2017-Dec-07 08:30N 49°17' W 123°05'0 0.3
2017-Dec-07 08:00N 49°17' W 123°05'1 1.8
2017-Dec-07 07:30N 49°18' W 123°06'1 2.0
2017-Dec-07 07:00N 49°19' W 123°06'0 0.0
2017-Dec-07 06:30N 49°19' W 123°06'0 0.0
2017-Dec-07 06:00N 49°19' W 123°06'0 0.0
2017-Dec-07 05:30N 49°19' W 123°06'1 2.7
2017-Dec-07 05:00N 49°18' W 123°05'1 1.1
2017-Dec-07 04:30N 49°17' W 123°04'0 0.4
2017-Dec-07 04:00N 49°17' W 123°05'2 3.8
2017-Dec-07 03:30N 49°18' W 123°07'1 1.2
2017-Dec-07 03:00N 49°19' W 123°08'2 4.9
2017-Dec-07 02:30N 49°18' W 123°04'0 0.7
2017-Dec-07 02:00N 49°17' W 123°05'2 3.6
2017-Dec-07 01:30N 49°19' W 123°06'0 0.0
2017-Dec-07 01:00N 49°19' W 123°06'0 0.0
2017-Dec-07 00:30N 49°19' W 123°06'3 6.0
2017-Dec-07 00:00N 49°18' W 123°02'5 8.5
2017-Dec-06 23:27N 49°18' W 122°55'2 3.9
2017-Dec-06 22:58N 49°17' W 122°52'0 0.5
2017-Dec-06 22:30N 49°18' W 122°52'2 4.1
2017-Dec-06 22:00N 49°18' W 122°55'3 5.8
2017-Dec-06 21:30N 49°18' W 122°60'2 4.9
2017-Dec-06 21:00N 49°18' W 123°04'  
2017-Dec-04 10:31N 49°19' W 123°06'0 0.0
2017-Dec-04 10:01N 49°19' W 123°06'0 0.0
2017-Dec-04 09:31N 49°19' W 123°06'0 0.0
2017-Dec-04 09:01N 49°19' W 123°06'0 0.0
2017-Dec-04 08:31N 49°19' W 123°06'0 0.0
2017-Dec-04 08:01N 49°19' W 123°06'0 0.0
2017-Dec-04 07:31N 49°19' W 123°06'0 0.0
2017-Dec-04 07:01N 49°19' W 123°06'0 0.0
2017-Dec-04 06:31N 49°19' W 123°06'0 0.0
2017-Dec-04 06:01N 49°19' W 123°06'0 0.0
2017-Dec-04 05:31N 49°19' W 123°06'0 0.0
2017-Dec-04 05:00N 49°19' W 123°06'0 0.0
2017-Dec-04 04:31N 49°19' W 123°06'0 0.0
2017-Dec-04 04:01N 49°19' W 123°06'0 0.0
2017-Dec-04 03:31N 49°19' W 123°06'0 0.0
2017-Dec-04 03:01N 49°19' W 123°06'0 0.0
2017-Dec-04 02:30N 49°19' W 123°06'0 0.0
2017-Dec-04 02:01N 49°19' W 123°06'0 0.0
2017-Dec-04 01:31N 49°19' W 123°06'0 0.0
2017-Dec-04 01:00N 49°19' W 123°06'0 0.0
2017-Dec-04 00:31N 49°19' W 123°06'0 0.0
2017-Dec-04 00:01N 49°19' W 123°06'0 0.0
2017-Dec-03 23:30N 49°19' W 123°06'0 0.0
2017-Dec-03 23:01N 49°19' W 123°06'0 0.0
2017-Dec-03 22:30N 49°19' W 123°06'0 0.0
2017-Dec-03 22:00N 49°19' W 123°06'0 0.0
2017-Dec-03 21:31N 49°19' W 123°06'0 0.0
2017-Dec-03 21:01N 49°19' W 123°06'0 0.0
2017-Dec-03 20:31N 49°19' W 123°06'0 0.0
2017-Dec-03 20:01N 49°19' W 123°06'0 0.0
2017-Dec-03 19:31N 49°19' W 123°06'0 0.0
2017-Dec-03 19:01N 49°19' W 123°06'0 0.0
2017-Dec-03 18:31N 49°19' W 123°06'0 0.0
2017-Dec-03 18:01N 49°19' W 123°06'0 0.0
2017-Dec-03 17:31N 49°19' W 123°06'0 0.0
2017-Dec-03 17:00N 49°19' W 123°06'0 0.2
2017-Dec-03 16:31N 49°19' W 123°06'4 8.4
2017-Dec-03 16:00N 49°18' W 123°13'510.3
2017-Dec-03 15:30N 49°15' W 123°18'611.0
2017-Dec-03 15:00N 49°09' W 123°19'510.7
2017-Dec-03 14:30N 49°04' W 123°20'510.5
2017-Dec-03 14:00N 48°59' W 123°19'510.7
2017-Dec-03 13:29N 48°53' W 123°18'4 7.6
2017-Dec-03 13:00N 48°50' W 123°21'611.3
2017-Dec-03 12:30N 48°45' W 123°18'611.9
2017-Dec-03 12:00N 48°39' W 123°15'713.6
2017-Dec-03 11:31N 48°33' W 123°12'612.1
2017-Dec-03 11:00N 48°27' W 123°10'612.2
2017-Dec-03 10:30N 48°23' W 123°17'612.0
2017-Dec-03 10:00N 48°25' W 123°26'1 2.8
2017-Dec-03 09:29N 48°26' W 123°26'0 0.3
2017-Dec-03 09:00N 48°26' W 123°26'0 0.6
2017-Dec-03 08:31N 48°26' W 123°26'0 0.2
2017-Dec-03 08:00N 48°26' W 123°26'0 0.1
2017-Dec-03 07:30N 48°26' W 123°26'0 0.1
2017-Dec-03 06:59N 48°26' W 123°26'1 1.9
2017-Dec-03 06:27N 48°25' W 123°27'2 5.0
2017-Dec-03 06:00N 48°25' W 123°23'0 0.0
2017-Dec-03 05:30N 48°25' W 123°23'0 0.0
2017-Dec-03 05:00N 48°25' W 123°23'0 0.0
2017-Dec-03 04:30N 48°25' W 123°23'0 0.0
2017-Dec-03 04:00N 48°25' W 123°23'0 0.0
2017-Dec-03 03:30N 48°25' W 123°23'0 0.0
2017-Dec-03 03:00N 48°25' W 123°23'0 0.0
2017-Dec-03 02:30N 48°25' W 123°23'0 0.0
2017-Dec-03 02:00N 48°25' W 123°23'0 0.0
2017-Dec-03 01:30N 48°25' W 123°23'0 0.0
2017-Dec-03 01:01N 48°25' W 123°23'1 2.8
2017-Dec-03 00:30N 48°24' W 123°22'5 9.8
2017-Dec-03 00:00N 48°26' W 123°16'611.5
2017-Dec-02 23:30N 48°32' W 123°16'611.9
2017-Dec-02 23:00N 48°37' W 123°21'611.2
2017-Dec-02 22:30N 48°43' W 123°21'611.5
2017-Dec-02 22:00N 48°49' W 123°21'4 8.5
2017-Dec-02 21:30N 48°53' W 123°18'610.9
2017-Dec-02 20:58N 48°58' W 123°14'4 7.5
2017-Dec-02 20:29N 49°00' W 123°11'0 0.8
2017-Dec-02 20:00N 49°01' W 123°10'0 0.2
2017-Dec-02 19:30N 49°01' W 123°10'1 2.8
2017-Dec-02 19:00N 49°01' W 123°12'2 3.4
2017-Dec-02 18:31N 49°00' W 123°10'1 1.2
2017-Dec-02 18:00N 49°01' W 123°09'1 1.3
2017-Dec-02 17:30N 49°02' W 123°09'0 0.0
2017-Dec-02 17:00N 49°02' W 123°09'2 3.6
2017-Dec-02 16:30N 49°01' W 123°11'510.1
2017-Dec-02 16:00N 49°03' W 123°18'510.3
2017-Dec-02 15:30N 49°08' W 123°19'511.1
2017-Dec-02 15:01N 49°14' W 123°18'510.1
2017-Dec-02 14:30N 49°18' W 123°15'510.6
2017-Dec-02 14:01N 49°18' W 123°07'4 7.7
2017-Dec-02 13:31N 49°18' W 123°01'3 5.7
2017-Dec-02 13:01N 49°18' W 123°05'1 1.5
2017-Dec-02 12:31N 49°19' W 123°06'0 0.1
2017-Dec-02 12:01N 49°19' W 123°06'0 0.0
2017-Dec-02 11:31N 49°19' W 123°06'0 0.0
2017-Dec-02 11:01N 49°19' W 123°06'0 0.0
2017-Dec-02 10:30N 49°19' W 123°06'0 0.0
2017-Dec-02 10:00N 49°19' W 123°06'1 2.3
2017-Dec-02 09:31N 49°18' W 123°04'0 0.6
2017-Dec-02 09:00N 49°18' W 123°04'1 2.7
2017-Dec-02 08:31N 49°19' W 123°06'0 0.1
2017-Dec-02 08:01N 49°19' W 123°06'0 0.0
2017-Dec-02 07:31N 49°19' W 123°06'0 0.0
2017-Dec-02 07:01N 49°19' W 123°06'0 0.2
2017-Dec-02 06:31N 49°19' W 123°06'0 0.1
2017-Dec-02 06:01N 49°19' W 123°06'0 0.0
2017-Dec-02 05:31N 49°19' W 123°06'0 0.0
2017-Dec-02 05:01N 49°19' W 123°06'0 0.0
2017-Dec-02 04:31N 49°19' W 123°06'0 0.0
2017-Dec-02 04:00N 49°19' W 123°06'0 0.7
2017-Dec-02 03:31N 49°19' W 123°06'1 1.4
2017-Dec-02 03:01N 49°18' W 123°06'510.4
2017-Dec-02 02:30N 49°17' W 122°58'0 0.0
2017-Dec-02 02:01N 49°17' W 122°58'0 0.7
2017-Dec-02 01:30N 49°18' W 122°58'0 0.1
2017-Dec-02 01:00N 49°18' W 122°58'3 5.6
2017-Dec-02 00:30N 49°18' W 123°03'2 4.1
2017-Dec-02 00:00N 49°18' W 123°06'5 9.7
2017-Dec-01 23:30N 49°19' W 123°13'611.5
2017-Dec-01 23:00N 49°19' W 123°22'611.0
2017-Dec-01 22:30N 49°20' W 123°30'510.7
2017-Dec-01 22:00N 49°23' W 123°37'3 1.0
2017-Dec-01 18:44N 49°24' W 123°42'313.8
2017-Dec-01 18:30N 49°23' W 123°37'612.6
2017-Dec-01 18:00N 49°21' W 123°28'612.2
2017-Dec-01 17:30N 49°19' W 123°19'612.2
2017-Dec-01 17:01N 49°19' W 123°10'  
Track history (hours):
 
Tides and Currents Weather Stations Pressure Air Temp Water Temp Dewpoint Dewpoint Depression Visibility Wind Speed Wind Dir Waves Ship Positions

Seaspan Raven

Last reported at 2017-Dec-11 17:00 UTC. Time now 2017-Dec-13 09:03 UTC.
Position N 49°18' W 123°07'.

Length 26 m; draft 4.5 m.

Type: Tug. MMSI: 316018851.

Date/timePositionNaut miles runAvg speedWind from/ knotsBaromVisibWave heightAir tempDewpointWater temp
2017-Dec-11 17:00N 49°18' W 123°07'1 2.2
2017-Dec-11 16:30N 49°19' W 123°06'0 0.0
2017-Dec-11 16:00N 49°19' W 123°06'0 0.0
2017-Dec-11 15:30N 49°19' W 123°06'0 0.0
2017-Dec-11 15:00N 49°19' W 123°06'0 0.0
2017-Dec-11 14:30N 49°19' W 123°06'0 0.0
2017-Dec-11 14:00N 49°19' W 123°06'0 0.0
2017-Dec-11 13:30N 49°19' W 123°06'0 0.0
2017-Dec-11 13:00N 49°19' W 123°06'0 0.0
2017-Dec-11 12:30N 49°19' W 123°06'0 0.0
2017-Dec-11 12:00N 49°19' W 123°06'0 0.0
2017-Dec-11 11:30N 49°19' W 123°06'0 0.0
2017-Dec-11 11:00N 49°19' W 123°06'0 0.0
2017-Dec-11 10:30N 49°19' W 123°06'0 0.0
2017-Dec-11 10:00N 49°19' W 123°06'0 0.0
2017-Dec-11 09:30N 49°19' W 123°06'0 0.0
2017-Dec-11 09:00N 49°19' W 123°06'0 0.0
2017-Dec-11 08:30N 49°19' W 123°06'0 0.0
2017-Dec-11 08:00N 49°19' W 123°06'0 0.0
2017-Dec-11 07:30N 49°19' W 123°06'0 0.0
2017-Dec-11 07:00N 49°19' W 123°06'0 0.0
2017-Dec-11 06:30N 49°19' W 123°06'0 0.0
2017-Dec-11 06:00N 49°19' W 123°06'0 0.0
2017-Dec-11 05:30N 49°19' W 123°06'0 0.0
2017-Dec-11 05:00N 49°19' W 123°06'0 0.0
2017-Dec-11 04:30N 49°19' W 123°06'0 0.0
2017-Dec-11 04:00N 49°19' W 123°06'0 0.0
2017-Dec-11 03:30N 49°19' W 123°06'2 4.1
2017-Dec-11 03:00N 49°18' W 123°04'3 5.4
2017-Dec-11 02:30N 49°18' W 122°59'3 6.1
2017-Dec-11 02:00N 49°18' W 122°55'2 3.5
2017-Dec-11 01:30N 49°17' W 122°52'0 0.6
2017-Dec-11 00:59N 49°18' W 122°53'4 8.5
2017-Dec-11 00:30N 49°18' W 122°59'3 7.0
2017-Dec-11 00:00N 49°17' W 123°04'1 2.4
2017-Dec-10 23:30N 49°18' W 123°03'0 0.0
2017-Dec-10 23:00N 49°18' W 123°03'0 0.0
2017-Dec-10 22:30N 49°18' W 123°03'0 0.0
2017-Dec-10 22:00N 49°18' W 123°03'0 0.0
2017-Dec-10 21:30N 49°18' W 123°03'0 0.0
2017-Dec-10 21:00N 49°18' W 123°03'0 0.0
2017-Dec-10 20:30N 49°18' W 123°03'0 0.0
2017-Dec-10 20:00N 49°18' W 123°03'2 4.8
2017-Dec-10 19:30N 49°18' W 122°59'0 0.9
2017-Dec-10 19:00N 49°18' W 122°58'0 0.1
2017-Dec-10 18:30N 49°18' W 122°58'0 0.1
2017-Dec-10 18:00N 49°18' W 122°58'0 0.0
2017-Dec-10 17:30N 49°18' W 122°58'0 0.0
2017-Dec-10 17:00N 49°18' W 122°58'0 0.1
2017-Dec-10 16:30N 49°18' W 122°58'0 0.1
2017-Dec-10 16:00N 49°18' W 122°58'3 5.6
2017-Dec-10 15:30N 49°18' W 123°02'510.1
2017-Dec-10 15:00N 49°19' W 123°10'510.6
2017-Dec-10 14:30N 49°17' W 123°17'611.0
2017-Dec-10 14:00N 49°11' W 123°19'510.7
2017-Dec-10 13:30N 49°06' W 123°20'510.6
2017-Dec-10 13:00N 49°02' W 123°15'4 7.2
2017-Dec-10 12:29N 49°01' W 123°09'0 0.3
2017-Dec-10 11:53N 49°01' W 123°09'1 3.6
2017-Dec-10 11:30N 48°60' W 123°09'2 3.8
2017-Dec-10 11:00N 49°02' W 123°09'0 0.0
2017-Dec-10 10:29N 49°02' W 123°09'0 0.0
2017-Dec-10 09:52N 49°02' W 123°09'0 0.0
2017-Dec-10 09:13N 49°02' W 123°09'0 0.0
2017-Dec-10 09:00N 49°02' W 123°09'0 0.0
2017-Dec-10 08:27N 49°02' W 123°09'0 0.0
2017-Dec-10 07:59N 49°02' W 123°09'0 0.0
2017-Dec-10 07:30N 49°02' W 123°09'1 1.3
2017-Dec-10 07:00N 49°01' W 123°09'0 0.0
2017-Dec-10 06:30N 49°01' W 123°09'0 0.1
2017-Dec-10 06:00N 49°01' W 123°09'0 1.0
2017-Dec-10 05:30N 49°00' W 123°10'0 0.5
2017-Dec-10 05:00N 49°00' W 123°09'0 0.8
2017-Dec-10 04:28N 49°01' W 123°09'0 0.1
2017-Dec-10 04:00N 49°01' W 123°09'1 1.5
2017-Dec-10 03:29N 49°02' W 123°09'0 0.0
2017-Dec-10 02:54N 49°02' W 123°09'0 0.0
2017-Dec-10 02:28N 49°02' W 123°09'0 0.0
2017-Dec-10 01:53N 49°02' W 123°09'0 0.2
2017-Dec-10 01:30N 49°01' W 123°09'1 2.4
2017-Dec-10 01:00N 49°01' W 123°10'0 0.2
2017-Dec-10 00:30N 49°01' W 123°10'0 0.1
2017-Dec-10 00:00N 49°01' W 123°10'2 3.7
2017-Dec-09 23:30N 49°01' W 123°13'510.9
2017-Dec-09 23:00N 49°05' W 123°19'611.2
2017-Dec-09 22:30N 49°10' W 123°19'611.1
2017-Dec-09 22:00N 49°16' W 123°18'5 9.7
2017-Dec-09 21:30N 49°19' W 123°12'4 7.2
2017-Dec-09 21:00N 49°19' W 123°06'0 0.0
2017-Dec-09 20:30N 49°19' W 123°06'0 0.0
2017-Dec-09 20:00N 49°19' W 123°06'1 2.6
2017-Dec-09 19:30N 49°19' W 123°08'2 4.2
2017-Dec-09 19:00N 49°18' W 123°05'0 0.7
2017-Dec-09 18:30N 49°18' W 123°05'1 2.8
2017-Dec-09 18:00N 49°19' W 123°06'0 0.0
2017-Dec-09 17:30N 49°19' W 123°06'2 3.5
2017-Dec-09 17:00N 49°19' W 123°09'3 5.2
2017-Dec-09 16:30N 49°18' W 123°05'0 0.8
2017-Dec-09 16:00N 49°18' W 123°05'1 2.3
2017-Dec-09 15:30N 49°19' W 123°06'0 0.0
2017-Dec-09 15:00N 49°19' W 123°06'0 0.0
2017-Dec-09 14:30N 49°19' W 123°06'0 0.0
2017-Dec-09 14:00N 49°19' W 123°06'0 0.0
2017-Dec-09 13:30N 49°19' W 123°06'0 0.0
2017-Dec-09 13:00N 49°19' W 123°06'0 0.0
2017-Dec-09 12:30N 49°19' W 123°06'0 0.0
2017-Dec-09 12:00N 49°19' W 123°06'0 0.0
2017-Dec-09 11:30N 49°19' W 123°06'0 0.7
2017-Dec-09 11:00N 49°18' W 123°07'4 7.1
2017-Dec-09 10:30N 49°19' W 123°12'4 8.7
2017-Dec-09 10:00N 49°16' W 123°18'510.0
2017-Dec-09 09:30N 49°11' W 123°19'510.2
2017-Dec-09 09:00N 49°06' W 123°20'5 9.5
2017-Dec-09 08:30N 49°02' W 123°16'5 9.4
2017-Dec-09 07:58N 49°00' W 123°09'0 0.7
2017-Dec-09 07:30N 49°00' W 123°10'1 0.6
2017-Dec-09 06:29N 49°01' W 123°09'2 3.7
2017-Dec-09 06:00N 48°59' W 123°09'1 2.2
2017-Dec-09 05:29N 49°00' W 123°10'2 3.6
2017-Dec-09 05:00N 49°01' W 123°12'4 9.0
2017-Dec-09 04:30N 49°04' W 123°18'4 8.7
2017-Dec-09 04:00N 49°08' W 123°19'5 9.3
2017-Dec-09 03:30N 49°12' W 123°18'5 9.2
2017-Dec-09 03:00N 49°17' W 123°17'5 9.1
2017-Dec-09 02:30N 49°19' W 123°11'4 8.2
2017-Dec-09 02:00N 49°18' W 123°05'2 3.5
2017-Dec-09 01:30N 49°18' W 123°02'0 0.0
2017-Dec-09 01:00N 49°18' W 123°02'1 2.7
2017-Dec-09 00:30N 49°18' W 122°60'1 2.7
2017-Dec-09 00:00N 49°18' W 122°58'2 4.8
2017-Dec-08 23:30N 49°18' W 122°54'1 2.4
2017-Dec-08 22:57N 49°17' W 122°52'2 5.1
2017-Dec-08 22:30N 49°18' W 122°56'5 9.2
2017-Dec-08 22:00N 49°18' W 123°03'1 1.0
2017-Dec-08 21:30N 49°18' W 123°03'0 0.0
2017-Dec-08 21:00N 49°18' W 123°03'1 2.1
2017-Dec-08 20:30N 49°18' W 123°05'1 1.6
2017-Dec-08 20:00N 49°18' W 123°03'1 1.8
2017-Dec-08 19:30N 49°18' W 123°02'0 0.3
2017-Dec-08 19:01N 49°18' W 123°02'2 3.2
2017-Dec-08 18:30N 49°18' W 123°05'0 0.6
2017-Dec-08 18:01N 49°18' W 123°04'1 2.6
2017-Dec-08 17:30N 49°18' W 123°02'0 0.3
2017-Dec-08 17:00N 49°18' W 123°02'1 3.0
2017-Dec-08 16:30N 49°18' W 123°04'2 3.2
2017-Dec-08 16:00N 49°19' W 123°06'0 0.0
2017-Dec-08 15:30N 49°19' W 123°06'0 0.0
2017-Dec-08 15:00N 49°19' W 123°06'0 0.0
2017-Dec-08 14:30N 49°19' W 123°06'0 0.0
2017-Dec-08 14:00N 49°19' W 123°06'0 0.0
2017-Dec-08 13:30N 49°19' W 123°06'0 0.0
2017-Dec-08 13:00N 49°19' W 123°06'0 0.0
2017-Dec-08 12:30N 49°19' W 123°06'0 0.0
2017-Dec-08 12:00N 49°19' W 123°06'0 0.0
2017-Dec-08 11:30N 49°19' W 123°06'0 0.0
2017-Dec-08 11:00N 49°19' W 123°06'0 0.0
2017-Dec-08 10:30N 49°19' W 123°06'0 0.0
2017-Dec-08 10:00N 49°19' W 123°06'0 0.0
2017-Dec-08 09:30N 49°19' W 123°06'0 0.0
2017-Dec-08 09:00N 49°19' W 123°06'0 0.0
2017-Dec-08 08:30N 49°19' W 123°06'0 0.0
2017-Dec-08 08:00N 49°19' W 123°06'0 0.0
2017-Dec-08 07:30N 49°19' W 123°06'0 0.0
2017-Dec-08 07:00N 49°19' W 123°06'0 0.0
2017-Dec-08 06:30N 49°19' W 123°06'0 0.0
2017-Dec-08 06:00N 49°19' W 123°06'0 0.0
2017-Dec-08 05:30N 49°19' W 123°06'0 0.0
2017-Dec-08 05:00N 49°19' W 123°06'0 0.0
2017-Dec-08 04:30N 49°19' W 123°06'0 0.0
2017-Dec-08 04:00N 49°19' W 123°06'0 0.0
2017-Dec-08 03:30N 49°19' W 123°06'0 0.0
2017-Dec-08 03:00N 49°19' W 123°06'0 0.0
2017-Dec-08 02:30N 49°19' W 123°06'0 0.0
2017-Dec-08 02:00N 49°19' W 123°06'0 0.0
2017-Dec-08 01:30N 49°19' W 123°06'0 0.0
2017-Dec-08 01:00N 49°19' W 123°06'0 0.0
2017-Dec-08 00:30N 49°19' W 123°06'0 0.2
2017-Dec-08 00:00N 49°19' W 123°06'0 0.0
2017-Dec-07 23:30N 49°19' W 123°06'0 0.0
2017-Dec-07 23:00N 49°19' W 123°06'0 0.5
2017-Dec-07 22:30N 49°18' W 123°06'1 1.6
2017-Dec-07 22:00N 49°18' W 123°05'0 0.5
2017-Dec-07 21:30N 49°18' W 123°05'0 0.0
2017-Dec-07 21:00N 49°18' W 123°05'0 0.0
2017-Dec-07 20:30N 49°18' W 123°05'0 0.0
2017-Dec-07 20:00N 49°18' W 123°05'0 0.0
2017-Dec-07 19:30N 49°18' W 123°05'0 0.0
2017-Dec-07 19:00N 49°18' W 123°05'0 0.0
2017-Dec-07 18:30N 49°18' W 123°05'0 0.0
2017-Dec-07 18:00N 49°18' W 123°05'0 0.0
2017-Dec-07 17:30N 49°18' W 123°05'0 0.2
2017-Dec-07 17:00N 49°18' W 123°05'0 0.0
2017-Dec-07 16:30N 49°18' W 123°05'0 0.0
2017-Dec-07 16:00N 49°18' W 123°05'0 0.0
2017-Dec-07 15:30N 49°18' W 123°05'0 0.0
2017-Dec-07 15:00N 49°18' W 123°05'0 0.1
2017-Dec-07 14:30N 49°18' W 123°05'1 1.5
2017-Dec-07 14:00N 49°18' W 123°04'0 0.1
2017-Dec-07 13:30N 49°18' W 123°04'2 3.4
2017-Dec-07 13:00N 49°19' W 123°06'0 0.0
2017-Dec-07 12:30N 49°19' W 123°06'0 0.0
2017-Dec-07 12:00N 49°19' W 123°06'0 0.0
2017-Dec-07 11:30N 49°19' W 123°06'0 0.0
2017-Dec-07 11:00N 49°19' W 123°06'0 0.0
2017-Dec-07 10:30N 49°19' W 123°06'0 0.0
2017-Dec-07 10:00N 49°19' W 123°06'0 0.0
2017-Dec-07 09:30N 49°19' W 123°06'2 3.1
2017-Dec-07 09:00N 49°17' W 123°05'0 0.0
2017-Dec-07 08:30N 49°17' W 123°05'0 0.3
2017-Dec-07 08:00N 49°17' W 123°05'1 1.8
2017-Dec-07 07:30N 49°18' W 123°06'1 2.0
2017-Dec-07 07:00N 49°19' W 123°06'0 0.0
2017-Dec-07 06:30N 49°19' W 123°06'0 0.0
2017-Dec-07 06:00N 49°19' W 123°06'0 0.0
2017-Dec-07 05:30N 49°19' W 123°06'1 2.7
2017-Dec-07 05:00N 49°18' W 123°05'1 1.1
2017-Dec-07 04:30N 49°17' W 123°04'0 0.4
2017-Dec-07 04:00N 49°17' W 123°05'2 3.8
2017-Dec-07 03:30N 49°18' W 123°07'1 1.2
2017-Dec-07 03:00N 49°19' W 123°08'2 4.9
2017-Dec-07 02:30N 49°18' W 123°04'0 0.7
2017-Dec-07 02:00N 49°17' W 123°05'2 3.6
2017-Dec-07 01:30N 49°19' W 123°06'0 0.0
2017-Dec-07 01:00N 49°19' W 123°06'0 0.0
2017-Dec-07 00:30N 49°19' W 123°06'3 6.0
2017-Dec-07 00:00N 49°18' W 123°02'5 8.5
2017-Dec-06 23:27N 49°18' W 122°55'2 3.9
2017-Dec-06 22:58N 49°17' W 122°52'0 0.5
2017-Dec-06 22:30N 49°18' W 122°52'2 4.1
2017-Dec-06 22:00N 49°18' W 122°55'3 5.8
2017-Dec-06 21:30N 49°18' W 122°60'2 4.9
2017-Dec-06 21:00N 49°18' W 123°04'  
2017-Dec-04 10:31N 49°19' W 123°06'0 0.0
2017-Dec-04 10:01N 49°19' W 123°06'0 0.0
2017-Dec-04 09:31N 49°19' W 123°06'0 0.0
2017-Dec-04 09:01N 49°19' W 123°06'0 0.0
2017-Dec-04 08:31N 49°19' W 123°06'0 0.0
2017-Dec-04 08:01N 49°19' W 123°06'0 0.0
2017-Dec-04 07:31N 49°19' W 123°06'0 0.0
2017-Dec-04 07:01N 49°19' W 123°06'0 0.0
2017-Dec-04 06:31N 49°19' W 123°06'0 0.0
2017-Dec-04 06:01N 49°19' W 123°06'0 0.0
2017-Dec-04 05:31N 49°19' W 123°06'0 0.0
2017-Dec-04 05:00N 49°19' W 123°06'0 0.0
2017-Dec-04 04:31N 49°19' W 123°06'0 0.0
2017-Dec-04 04:01N 49°19' W 123°06'0 0.0
2017-Dec-04 03:31N 49°19' W 123°06'0 0.0
2017-Dec-04 03:01N 49°19' W 123°06'0 0.0
2017-Dec-04 02:30N 49°19' W 123°06'0 0.0
2017-Dec-04 02:01N 49°19' W 123°06'0 0.0
2017-Dec-04 01:31N 49°19' W 123°06'0 0.0
2017-Dec-04 01:00N 49°19' W 123°06'0 0.0
2017-Dec-04 00:31N 49°19' W 123°06'0 0.0
2017-Dec-04 00:01N 49°19' W 123°06'0 0.0
2017-Dec-03 23:30N 49°19' W 123°06'0 0.0
2017-Dec-03 23:01N 49°19' W 123°06'0 0.0
2017-Dec-03 22:30N 49°19' W 123°06'0 0.0
2017-Dec-03 22:00N 49°19' W 123°06'0 0.0
2017-Dec-03 21:31N 49°19' W 123°06'0 0.0
2017-Dec-03 21:01N 49°19' W 123°06'0 0.0
2017-Dec-03 20:31N 49°19' W 123°06'0 0.0
2017-Dec-03 20:01N 49°19' W 123°06'0 0.0
2017-Dec-03 19:31N 49°19' W 123°06'0 0.0
2017-Dec-03 19:01N 49°19' W 123°06'0 0.0
2017-Dec-03 18:31N 49°19' W 123°06'0 0.0
2017-Dec-03 18:01N 49°19' W 123°06'0 0.0
2017-Dec-03 17:31N 49°19' W 123°06'0 0.0
2017-Dec-03 17:00N 49°19' W 123°06'0 0.2
2017-Dec-03 16:31N 49°19' W 123°06'4 8.4
2017-Dec-03 16:00N 49°18' W 123°13'510.3
2017-Dec-03 15:30N 49°15' W 123°18'611.0
2017-Dec-03 15:00N 49°09' W 123°19'510.7
2017-Dec-03 14:30N 49°04' W 123°20'510.5
2017-Dec-03 14:00N 48°59' W 123°19'510.7
2017-Dec-03 13:29N 48°53' W 123°18'4 7.6
2017-Dec-03 13:00N 48°50' W 123°21'611.3
2017-Dec-03 12:30N 48°45' W 123°18'611.9
2017-Dec-03 12:00N 48°39' W 123°15'713.6
2017-Dec-03 11:31N 48°33' W 123°12'612.1
2017-Dec-03 11:00N 48°27' W 123°10'612.2
2017-Dec-03 10:30N 48°23' W 123°17'612.0
2017-Dec-03 10:00N 48°25' W 123°26'1 2.8
2017-Dec-03 09:29N 48°26' W 123°26'0 0.3
2017-Dec-03 09:00N 48°26' W 123°26'0 0.6
2017-Dec-03 08:31N 48°26' W 123°26'0 0.2
2017-Dec-03 08:00N 48°26' W 123°26'0 0.1
2017-Dec-03 07:30N 48°26' W 123°26'0 0.1
2017-Dec-03 06:59N 48°26' W 123°26'1 1.9
2017-Dec-03 06:27N 48°25' W 123°27'2 5.0
2017-Dec-03 06:00N 48°25' W 123°23'0 0.0
2017-Dec-03 05:30N 48°25' W 123°23'0 0.0
2017-Dec-03 05:00N 48°25' W 123°23'0 0.0
2017-Dec-03 04:30N 48°25' W 123°23'0 0.0
2017-Dec-03 04:00N 48°25' W 123°23'0 0.0
2017-Dec-03 03:30N 48°25' W 123°23'0 0.0
2017-Dec-03 03:00N 48°25' W 123°23'0 0.0
2017-Dec-03 02:30N 48°25' W 123°23'0 0.0
2017-Dec-03 02:00N 48°25' W 123°23'0 0.0
2017-Dec-03 01:30N 48°25' W 123°23'0 0.0
2017-Dec-03 01:01N 48°25' W 123°23'1 2.8
2017-Dec-03 00:30N 48°24' W 123°22'5 9.8
2017-Dec-03 00:00N 48°26' W 123°16'611.5
2017-Dec-02 23:30N 48°32' W 123°16'611.9
2017-Dec-02 23:00N 48°37' W 123°21'611.2
2017-Dec-02 22:30N 48°43' W 123°21'611.5
2017-Dec-02 22:00N 48°49' W 123°21'4 8.5
2017-Dec-02 21:30N 48°53' W 123°18'610.9
2017-Dec-02 20:58N 48°58' W 123°14'4 7.5
2017-Dec-02 20:29N 49°00' W 123°11'0 0.8
2017-Dec-02 20:00N 49°01' W 123°10'0 0.2
2017-Dec-02 19:30N 49°01' W 123°10'1 2.8
2017-Dec-02 19:00N 49°01' W 123°12'2 3.4
2017-Dec-02 18:31N 49°00' W 123°10'1 1.2
2017-Dec-02 18:00N 49°01' W 123°09'1 1.3
2017-Dec-02 17:30N 49°02' W 123°09'0 0.0
2017-Dec-02 17:00N 49°02' W 123°09'2 3.6
2017-Dec-02 16:30N 49°01' W 123°11'510.1
2017-Dec-02 16:00N 49°03' W 123°18'510.3
2017-Dec-02 15:30N 49°08' W 123°19'511.1
2017-Dec-02 15:01N 49°14' W 123°18'510.1
2017-Dec-02 14:30N 49°18' W 123°15'510.6
2017-Dec-02 14:01N 49°18' W 123°07'4 7.7
2017-Dec-02 13:31N 49°18' W 123°01'3 5.7
2017-Dec-02 13:01N 49°18' W 123°05'1 1.5
2017-Dec-02 12:31N 49°19' W 123°06'0 0.1
2017-Dec-02 12:01N 49°19' W 123°06'0 0.0
2017-Dec-02 11:31N 49°19' W 123°06'0 0.0
2017-Dec-02 11:01N 49°19' W 123°06'0 0.0
2017-Dec-02 10:30N 49°19' W 123°06'0 0.0
2017-Dec-02 10:00N 49°19' W 123°06'1 2.3
2017-Dec-02 09:31N 49°18' W 123°04'0 0.6
2017-Dec-02 09:00N 49°18' W 123°04'1 2.7
2017-Dec-02 08:31N 49°19' W 123°06'0 0.1
2017-Dec-02 08:01N 49°19' W 123°06'0 0.0
2017-Dec-02 07:31N 49°19' W 123°06'0 0.0
2017-Dec-02 07:01N 49°19' W 123°06'0 0.2
2017-Dec-02 06:31N 49°19' W 123°06'0 0.1
2017-Dec-02 06:01N 49°19' W 123°06'0 0.0
2017-Dec-02 05:31N 49°19' W 123°06'0 0.0
2017-Dec-02 05:01N 49°19' W 123°06'0 0.0
2017-Dec-02 04:31N 49°19' W 123°06'0 0.0
2017-Dec-02 04:00N 49°19' W 123°06'0 0.7
2017-Dec-02 03:31N 49°19' W 123°06'1 1.4
2017-Dec-02 03:01N 49°18' W 123°06'510.4
2017-Dec-02 02:30N 49°17' W 122°58'0 0.0
2017-Dec-02 02:01N 49°17' W 122°58'0 0.7
2017-Dec-02 01:30N 49°18' W 122°58'0 0.1
2017-Dec-02 01:00N 49°18' W 122°58'3 5.6
2017-Dec-02 00:30N 49°18' W 123°03'2 4.1
2017-Dec-02 00:00N 49°18' W 123°06'5 9.7
2017-Dec-01 23:30N 49°19' W 123°13'611.5
2017-Dec-01 23:00N 49°19' W 123°22'611.0
2017-Dec-01 22:30N 49°20' W 123°30'510.7
2017-Dec-01 22:00N 49°23' W 123°37'3 1.0
2017-Dec-01 18:44N 49°24' W 123°42'313.8
2017-Dec-01 18:30N 49°23' W 123°37'612.6
2017-Dec-01 18:00N 49°21' W 123°28'612.2
2017-Dec-01 17:30N 49°19' W 123°19'612.2
2017-Dec-01 17:01N 49°19' W 123°10'  

Dump ship's entire track history